createdAt,value
2024-01-11T00:00:52.407Z,33.83
2024-01-11T00:03:20.763Z,32.30
2024-01-11T00:05:51.214Z,35.47
2024-01-11T00:08:20.007Z,35.22
2024-01-11T00:10:48.664Z,34.77
2024-01-11T00:13:16.832Z,35.67
2024-01-11T00:15:45.899Z,33.67
2024-01-11T00:18:14.619Z,34.47
2024-01-11T00:20:43.623Z,33.58
2024-01-11T00:23:13.664Z,32.00
2024-01-11T00:25:42.014Z,31.88
2024-01-11T00:28:10.915Z,38.38
2024-01-11T00:30:43.916Z,32.63
2024-01-11T00:33:12.654Z,36.80
2024-01-11T00:35:42.375Z,34.43
2024-01-11T00:38:11.238Z,36.63
2024-01-11T00:40:42.084Z,34.88
2024-01-11T00:43:10.753Z,39.42
2024-01-11T00:45:39.780Z,40.20
2024-01-11T00:48:09.358Z,31.53
2024-01-11T00:50:37.770Z,39.25
2024-01-11T00:53:06.809Z,39.97
2024-01-11T00:55:36.958Z,33.85
2024-01-11T00:58:06.868Z,36.97
2024-01-11T01:00:35.256Z,38.50
2024-01-11T01:03:03.556Z,38.95
2024-01-11T01:05:32.227Z,37.03
2024-01-11T01:08:00.564Z,36.47
2024-01-11T01:10:29.262Z,40.03
2024-01-11T01:12:57.992Z,34.53
2024-01-11T01:15:27.711Z,34.70
2024-01-11T01:17:55.687Z,32.55
2024-01-11T01:20:24.709Z,36.70
2024-01-11T01:22:53.239Z,44.70
2024-01-11T01:25:21.585Z,33.13
2024-01-11T01:27:50.578Z,35.88
2024-01-11T01:30:19.203Z,37.22
2024-01-11T01:32:50.271Z,34.60
2024-01-11T01:35:19.000Z,36.47
2024-01-11T01:37:47.969Z,34.20
2024-01-11T01:40:16.953Z,31.92
2024-01-11T01:42:46.652Z,34.38
2024-01-11T01:45:16.900Z,34.45
2024-01-11T01:47:46.341Z,35.28
2024-01-11T01:50:16.880Z,36.03
2024-01-11T01:52:45.614Z,31.45
2024-01-11T01:55:14.833Z,37.60
2024-01-11T01:57:45.432Z,33.65
2024-01-11T02:00:15.106Z,36.22
2024-01-11T02:02:46.044Z,32.40
2024-01-11T02:05:18.907Z,37.33
2024-01-11T02:07:47.748Z,37.05
2024-01-11T02:10:15.916Z,36.05
2024-01-11T02:12:44.501Z,35.97
2024-01-11T02:15:12.941Z,38.03
2024-01-11T02:17:42.973Z,33.53
2024-01-11T02:20:13.082Z,36.05
2024-01-11T02:22:49.264Z,40.63
2024-01-11T02:25:19.138Z,37.80
2024-01-11T02:27:49.059Z,36.87
2024-01-11T02:30:20.618Z,38.78
2024-01-11T02:32:51.251Z,37.70
2024-01-11T02:35:21.443Z,39.28
2024-01-11T02:37:50.629Z,38.80
2024-01-11T02:40:21.534Z,33.47
2024-01-11T02:42:48.796Z,34.97
2024-01-11T02:45:17.378Z,31.95
2024-01-11T02:47:45.641Z,33.70
2024-01-11T02:50:14.402Z,34.30
2024-01-11T02:52:43.116Z,35.03
2024-01-11T02:55:11.598Z,37.65
2024-01-11T02:57:41.968Z,31.85
2024-01-11T03:00:10.943Z,36.13
2024-01-11T03:02:40.147Z,36.05
2024-01-11T03:05:08.845Z,34.27
2024-01-11T03:07:37.705Z,33.10
2024-01-11T03:10:06.646Z,35.97
2024-01-11T03:12:34.740Z,36.55
2024-01-11T03:15:05.203Z,35.45
2024-01-11T03:17:33.922Z,30.00
2024-01-11T03:20:02.470Z,30.27
2024-01-11T03:22:30.702Z,38.67
2024-01-11T03:24:58.716Z,33.70
2024-01-11T03:27:26.807Z,37.00
2024-01-11T03:29:54.934Z,34.07
2024-01-11T03:32:24.788Z,35.40
2024-01-11T03:34:53.451Z,34.28
2024-01-11T03:37:21.480Z,37.63
2024-01-11T03:39:49.749Z,35.67
2024-01-11T03:42:18.571Z,37.73
2024-01-11T03:44:47.261Z,35.75
2024-01-11T03:47:15.523Z,38.13
2024-01-11T03:49:45.163Z,40.15
2024-01-11T03:52:15.073Z,35.53
2024-01-11T03:54:43.403Z,34.07
2024-01-11T03:57:11.763Z,31.38
2024-01-11T03:59:40.004Z,34.63
2024-01-11T04:02:08.254Z,37.70
2024-01-11T04:04:36.378Z,31.85
2024-01-11T04:07:06.220Z,35.87
2024-01-11T04:09:34.893Z,39.33
2024-01-11T04:12:04.819Z,32.85
2024-01-11T04:14:33.734Z,34.90
2024-01-11T04:17:03.731Z,35.67
2024-01-11T04:19:32.061Z,38.80
2024-01-11T04:22:00.267Z,38.03
2024-01-11T04:24:29.816Z,38.83
2024-01-11T04:26:58.339Z,33.20
2024-01-11T04:29:26.678Z,38.33
2024-01-11T04:31:55.042Z,36.40
2024-01-11T04:34:23.145Z,33.22
2024-01-11T04:36:51.670Z,28.83
2024-01-11T04:39:19.957Z,30.98
2024-01-11T04:41:49.351Z,29.17
2024-01-11T04:44:17.733Z,38.17
2024-01-11T04:46:46.094Z,36.42
2024-01-11T04:49:14.536Z,33.10
2024-01-11T04:51:42.932Z,36.78
2024-01-11T04:54:11.395Z,38.63
2024-01-11T04:56:39.704Z,34.03
2024-01-11T04:59:09.283Z,34.92
2024-01-11T05:01:37.394Z,33.30
2024-01-11T05:04:06.087Z,35.53
2024-01-11T05:06:34.321Z,38.63
2024-01-11T05:09:03.011Z,30.20
2024-01-11T05:11:31.210Z,36.72
2024-01-11T05:13:59.504Z,29.52
2024-01-11T05:16:30.505Z,35.97
2024-01-11T05:19:00.087Z,35.13
2024-01-11T05:21:28.214Z,40.63
2024-01-11T05:23:56.229Z,36.97
2024-01-11T05:26:24.323Z,33.63
2024-01-11T05:28:55.157Z,33.75
2024-01-11T05:31:23.717Z,34.22
2024-01-11T05:33:53.681Z,31.47
2024-01-11T05:36:22.758Z,34.03
2024-01-11T05:38:52.439Z,43.35
2024-01-11T05:41:20.999Z,39.85
2024-01-11T05:43:49.694Z,39.28
2024-01-11T05:46:18.102Z,33.43
2024-01-11T05:48:47.313Z,37.45
2024-01-11T05:51:17.459Z,37.38
2024-01-11T05:53:46.014Z,36.78
2024-01-11T05:56:14.805Z,33.72
2024-01-11T05:58:43.881Z,32.57
2024-01-11T06:01:12.850Z,40.08
2024-01-11T06:03:43.057Z,34.53
2024-01-11T06:06:11.683Z,35.15
2024-01-11T06:08:43.985Z,36.97
2024-01-11T06:11:13.480Z,30.63
2024-01-11T06:13:42.768Z,40.67
2024-01-11T06:16:13.426Z,37.63
2024-01-11T06:18:42.177Z,39.10
2024-01-11T06:21:10.514Z,35.95
2024-01-11T06:23:39.584Z,33.07
2024-01-11T06:26:10.248Z,34.53
2024-01-11T06:28:39.177Z,33.35
2024-01-11T06:31:07.792Z,36.00
2024-01-11T06:33:38.439Z,39.97
2024-01-11T06:36:08.475Z,40.30
2024-01-11T06:38:37.337Z,35.30
2024-01-11T06:41:05.801Z,39.88
2024-01-11T06:43:35.986Z,36.95
2024-01-11T06:46:06.462Z,38.83
2024-01-11T06:48:35.554Z,36.83
2024-01-11T06:51:04.535Z,37.28
2024-01-11T06:53:35.442Z,40.78
2024-01-11T06:56:04.592Z,35.20
2024-01-11T06:58:35.770Z,37.90
2024-01-11T07:01:07.935Z,39.17
2024-01-11T07:03:38.629Z,34.30
2024-01-11T07:06:08.978Z,36.58
2024-01-11T07:08:37.775Z,38.40
2024-01-11T07:11:06.813Z,34.03
2024-01-11T07:13:35.589Z,39.70
2024-01-11T07:16:05.656Z,38.40
2024-01-11T07:18:35.541Z,39.72
2024-01-11T07:21:04.709Z,33.25
2024-01-11T07:23:32.992Z,38.35
2024-01-11T07:26:01.254Z,38.43
2024-01-11T07:28:29.627Z,37.58
2024-01-11T07:30:58.022Z,37.60
2024-01-11T07:33:26.868Z,36.58
2024-01-11T07:35:58.068Z,34.33
2024-01-11T07:38:27.870Z,35.67
2024-01-11T07:40:56.600Z,39.85
2024-01-11T07:43:31.486Z,37.70
2024-01-11T07:46:00.324Z,35.45
2024-01-11T07:48:29.140Z,42.28
2024-01-11T07:51:00.010Z,36.13
2024-01-11T07:53:29.265Z,37.85
2024-01-11T07:55:57.377Z,34.50
2024-01-11T07:58:25.721Z,34.22
2024-01-11T08:00:55.663Z,42.38
2024-01-11T08:03:24.644Z,34.47
2024-01-11T08:05:53.100Z,36.25
2024-01-11T08:08:23.230Z,37.95
2024-01-11T08:10:51.477Z,34.80
2024-01-11T08:13:19.771Z,40.28
2024-01-11T08:15:47.914Z,34.67
2024-01-11T08:18:16.523Z,43.50
2024-01-11T08:20:44.851Z,49.78
2024-01-11T08:23:13.194Z,48.17
2024-01-11T08:25:43.070Z,34.47
2024-01-11T08:28:12.064Z,39.10
2024-01-11T08:30:40.405Z,42.20
2024-01-11T08:33:08.570Z,38.63
2024-01-11T08:35:37.506Z,40.53
2024-01-11T08:38:05.993Z,33.58
2024-01-11T08:40:34.154Z,43.10
2024-01-11T08:43:04.391Z,33.92
2024-01-11T08:45:32.698Z,36.95
2024-01-11T08:48:01.976Z,37.97
2024-01-11T08:50:30.440Z,44.85
2024-01-11T08:52:58.508Z,40.93
2024-01-11T08:55:27.713Z,38.78
2024-01-11T08:57:55.874Z,40.78
2024-01-11T09:00:25.528Z,38.65
2024-01-11T09:02:53.957Z,34.72
2024-01-11T09:05:22.695Z,38.10
2024-01-11T09:07:52.310Z,37.40
2024-01-11T09:10:21.934Z,40.08
2024-01-11T09:12:49.968Z,37.30
2024-01-11T09:15:18.391Z,37.35
2024-01-11T09:17:48.188Z,39.27
2024-01-11T09:20:17.788Z,33.90
2024-01-11T09:22:46.632Z,32.85
2024-01-11T09:25:14.983Z,36.88
2024-01-11T09:27:43.450Z,39.17
2024-01-11T09:30:12.272Z,36.43
2024-01-11T09:32:40.748Z,30.98
2024-01-11T09:35:11.984Z,36.75
2024-01-11T09:37:43.890Z,36.28
2024-01-11T09:40:12.746Z,33.85
2024-01-11T09:42:42.023Z,35.87
2024-01-11T09:45:13.511Z,31.35
2024-01-11T09:47:42.360Z,35.58
2024-01-11T09:50:16.213Z,37.65
2024-01-11T09:52:48.760Z,30.25
2024-01-11T09:55:17.685Z,33.90
2024-01-11T09:57:47.809Z,34.53
2024-01-11T10:00:19.895Z,35.33
2024-01-11T10:02:48.736Z,36.25
2024-01-11T10:05:20.555Z,34.53
2024-01-11T10:07:49.144Z,35.70
2024-01-11T10:10:18.142Z,31.95
2024-01-11T10:12:46.732Z,39.42
2024-01-11T10:15:15.601Z,37.40
2024-01-11T10:17:45.385Z,37.58
2024-01-11T10:20:18.312Z,35.07
2024-01-11T10:22:49.372Z,40.90
2024-01-11T10:25:19.883Z,35.08
2024-01-11T10:27:48.155Z,35.95
2024-01-11T10:30:18.653Z,39.88
2024-01-11T10:32:48.088Z,31.60
2024-01-11T10:35:18.646Z,32.95
2024-01-11T10:37:54.922Z,36.53
2024-01-11T10:40:26.817Z,33.63
2024-01-11T10:42:56.004Z,34.75
2024-01-11T10:45:28.298Z,33.80
2024-01-11T10:48:01.469Z,34.00
2024-01-11T10:50:36.510Z,37.22
2024-01-11T10:53:19.846Z,38.55
2024-01-11T10:55:49.470Z,33.67
2024-01-11T10:58:18.663Z,35.70
2024-01-11T11:00:50.629Z,31.38
2024-01-11T11:03:21.714Z,33.38
2024-01-11T11:05:52.722Z,30.50
2024-01-11T11:08:22.934Z,35.33
2024-01-11T11:10:53.527Z,31.50
2024-01-11T11:13:22.236Z,30.98
2024-01-11T11:15:50.952Z,33.00
2024-01-11T11:18:20.578Z,31.40
2024-01-11T11:20:49.418Z,32.53
2024-01-11T11:23:19.637Z,28.80
2024-01-11T11:25:50.599Z,29.08
2024-01-11T11:28:20.773Z,34.50
2024-01-11T11:30:51.377Z,34.90
2024-01-11T11:33:21.634Z,32.08
2024-01-11T11:35:51.079Z,30.47
2024-01-11T11:38:21.020Z,32.47
2024-01-11T11:40:53.251Z,35.65
2024-01-11T11:43:23.347Z,32.55
2024-01-11T11:45:53.068Z,31.30
2024-01-11T11:48:53.758Z,30.07
2024-01-11T11:51:24.738Z,31.90
2024-01-11T11:53:55.449Z,34.33
2024-01-11T11:56:25.896Z,30.92
2024-01-11T11:58:56.547Z,31.08
2024-01-11T12:01:25.215Z,29.83
2024-01-11T12:03:54.707Z,26.60
2024-01-11T12:06:26.112Z,34.58
2024-01-11T12:08:57.845Z,29.10
2024-01-11T12:11:28.811Z,28.65
2024-01-11T12:13:59.302Z,30.10
2024-01-11T12:16:28.782Z,28.55
2024-01-11T12:18:57.715Z,28.88
2024-01-11T12:21:27.426Z,32.38
2024-01-11T12:23:55.904Z,29.95
2024-01-11T12:26:24.873Z,32.57
2024-01-11T12:28:55.182Z,36.50
2024-01-11T12:31:24.410Z,32.08
2024-01-11T12:33:53.508Z,29.52
2024-01-11T12:36:22.871Z,33.70
2024-01-11T12:38:53.230Z,31.87
2024-01-11T12:41:24.922Z,31.77
2024-01-11T12:43:55.250Z,33.63
2024-01-11T12:46:23.971Z,37.85
2024-01-11T12:48:53.139Z,31.52
2024-01-11T12:51:23.538Z,30.30
2024-01-11T12:53:54.584Z,34.55
2024-01-11T12:56:24.581Z,36.17
2024-01-11T12:59:07.961Z,35.00
2024-01-11T13:01:36.580Z,38.83
2024-01-11T13:04:05.223Z,33.40
2024-01-11T13:06:35.559Z,33.72
2024-01-11T13:09:05.384Z,35.60
2024-01-11T13:11:34.183Z,35.95
2024-01-11T13:14:07.931Z,33.35
2024-01-11T13:16:36.890Z,34.13
2024-01-11T13:19:16.477Z,37.05
2024-01-11T13:21:53.282Z,35.75
2024-01-11T13:24:21.406Z,39.38
2024-01-11T13:26:49.713Z,38.63
2024-01-11T13:29:19.528Z,36.10
2024-01-11T13:31:48.111Z,37.20
2024-01-11T13:34:16.768Z,32.38
2024-01-11T13:36:45.182Z,34.03
2024-01-11T13:39:13.591Z,33.67
2024-01-11T13:41:42.297Z,31.50
2024-01-11T13:44:10.794Z,33.42
2024-01-11T13:46:40.483Z,37.55
2024-01-11T13:49:09.337Z,37.00
2024-01-11T13:51:46.404Z,32.28
2024-01-11T13:54:23.421Z,34.70
2024-01-11T13:56:52.892Z,36.42
2024-01-11T13:59:21.380Z,32.67
2024-01-11T14:01:51.431Z,35.05
2024-01-11T14:04:20.117Z,33.58
2024-01-11T14:06:48.336Z,32.33
2024-01-11T14:09:17.475Z,26.95
2024-01-11T14:11:46.449Z,31.95
2024-01-11T14:14:15.082Z,30.55
2024-01-11T14:16:43.970Z,32.17
2024-01-11T14:19:14.455Z,32.07
2024-01-11T14:21:43.642Z,33.95
2024-01-11T14:24:14.460Z,33.55
2024-01-11T14:26:44.686Z,32.38
2024-01-11T14:29:13.238Z,32.60
2024-01-11T14:31:42.178Z,33.87
2024-01-11T14:34:11.744Z,32.30
2024-01-11T14:36:41.995Z,29.52
2024-01-11T14:39:11.483Z,31.75
2024-01-11T14:41:40.198Z,32.00
2024-01-11T14:44:08.802Z,30.63
2024-01-11T14:46:40.148Z,34.17
2024-01-11T14:49:09.569Z,29.73
2024-01-11T14:51:38.630Z,33.42
2024-01-11T14:54:08.560Z,36.28
2024-01-11T14:56:39.144Z,30.43
2024-01-11T14:59:07.757Z,34.88
2024-01-11T15:01:37.298Z,28.67
2024-01-11T15:04:06.377Z,29.65
2024-01-11T15:06:35.009Z,33.67
2024-01-11T15:09:04.058Z,27.80
2024-01-11T15:11:37.369Z,32.92
2024-01-11T15:14:06.501Z,29.90
2024-01-11T15:16:36.257Z,30.48
2024-01-11T15:19:05.681Z,30.80
2024-01-11T15:21:37.430Z,32.67
2024-01-11T15:24:07.233Z,33.42
2024-01-11T15:26:37.391Z,36.55
2024-01-11T15:29:07.080Z,34.47
2024-01-11T15:31:39.946Z,33.13
2024-01-11T15:34:08.957Z,36.47
2024-01-11T15:36:37.616Z,36.10
2024-01-11T15:39:16.391Z,33.13
2024-01-11T15:41:51.283Z,38.75
2024-01-11T15:44:19.958Z,41.25
2024-01-11T15:46:48.322Z,34.10
2024-01-11T15:49:16.735Z,35.92
2024-01-11T15:51:45.165Z,43.30
2024-01-11T15:54:13.871Z,40.65
2024-01-11T15:56:42.570Z,40.90
2024-01-11T15:59:12.498Z,41.27
2024-01-11T16:01:51.258Z,38.50
2024-01-11T16:04:29.590Z,40.45
2024-01-11T16:06:58.621Z,43.17
2024-01-11T16:09:27.697Z,37.83
2024-01-11T16:12:02.220Z,38.17
2024-01-11T16:14:35.307Z,39.08
2024-01-11T16:17:04.078Z,41.60
2024-01-11T16:19:34.525Z,41.67
2024-01-11T16:22:03.085Z,40.80
2024-01-11T16:24:31.276Z,41.70
2024-01-11T16:27:00.392Z,43.90
2024-01-11T16:29:28.799Z,39.17
2024-01-11T16:31:59.742Z,38.38
2024-01-11T16:34:29.103Z,45.55
2024-01-11T16:36:57.804Z,41.17
2024-01-11T16:39:26.419Z,42.53
2024-01-11T16:41:55.311Z,39.63
2024-01-11T16:44:23.978Z,43.65
2024-01-11T16:46:53.626Z,40.88
2024-01-11T16:49:24.657Z,41.08
2024-01-11T16:51:53.240Z,41.67
2024-01-11T16:54:21.519Z,43.70
2024-01-11T16:56:49.175Z,45.30
2024-01-11T16:59:19.118Z,39.95
2024-01-11T17:01:48.208Z,47.42
2024-01-11T17:04:16.877Z,40.83
2024-01-11T17:06:46.656Z,42.55
2024-01-11T17:09:15.057Z,43.35
2024-01-11T17:11:43.873Z,45.83
2024-01-11T17:14:12.778Z,42.83
2024-01-11T17:16:41.139Z,41.67
2024-01-11T17:19:08.282Z,47.33
2024-01-11T17:21:36.711Z,45.08
2024-01-11T17:24:07.176Z,47.08
2024-01-11T17:26:36.459Z,40.20
2024-01-11T17:29:04.811Z,46.80
2024-01-11T17:31:33.940Z,40.15
2024-01-11T17:34:02.744Z,40.08
2024-01-11T17:36:31.021Z,39.92
2024-01-11T17:39:01.178Z,41.45
2024-01-11T17:41:31.309Z,41.40
2024-01-11T17:43:59.718Z,45.28
2024-01-11T17:46:29.441Z,47.78
2024-01-11T17:48:58.175Z,39.80
2024-01-11T17:51:27.143Z,45.47
2024-01-11T17:53:55.355Z,39.30
2024-01-11T17:56:24.373Z,38.30
2024-01-11T17:58:54.397Z,37.08
2024-01-11T18:01:23.526Z,37.65
2024-01-11T18:03:52.257Z,37.50
2024-01-11T18:06:21.159Z,39.60
2024-01-11T18:08:49.910Z,43.92
2024-01-11T18:11:18.570Z,44.03
2024-01-11T18:13:47.516Z,43.08
2024-01-11T18:16:17.327Z,44.05
2024-01-11T18:18:47.928Z,42.83
2024-01-11T18:21:17.428Z,41.42
2024-01-11T18:23:46.207Z,42.08
2024-01-11T18:26:15.860Z,41.05
2024-01-11T18:28:45.706Z,43.30
2024-01-11T18:31:18.674Z,42.90
2024-01-11T18:33:48.393Z,44.78
2024-01-11T18:36:18.953Z,39.53
2024-01-11T18:38:47.425Z,36.85
2024-01-11T18:41:16.094Z,43.30
2024-01-11T18:43:44.265Z,40.13
2024-01-11T18:46:12.597Z,41.13
2024-01-11T18:48:42.502Z,40.38
2024-01-11T18:51:10.965Z,40.25
2024-01-11T18:53:41.582Z,39.08
2024-01-11T18:56:14.778Z,41.37
2024-01-11T18:58:43.084Z,44.28
2024-01-11T19:01:11.568Z,39.80
2024-01-11T19:03:41.132Z,38.22
2024-01-11T19:06:11.074Z,45.28
2024-01-11T19:08:39.636Z,40.50
2024-01-11T19:11:08.726Z,41.22
2024-01-11T19:13:36.935Z,39.08
2024-01-11T19:16:05.942Z,40.55
2024-01-11T19:18:34.515Z,44.42
2024-01-11T19:21:03.687Z,42.13
2024-01-11T19:23:35.098Z,39.97
2024-01-11T19:26:03.965Z,42.17
2024-01-11T19:28:32.417Z,42.10
2024-01-11T19:31:00.699Z,42.30
2024-01-11T19:33:29.793Z,39.77
2024-01-11T19:35:58.797Z,42.75
2024-01-11T19:38:27.313Z,41.60
2024-01-11T19:40:57.292Z,39.38
2024-01-11T19:43:25.789Z,45.33
2024-01-11T19:45:56.193Z,46.20
2024-01-11T19:48:25.471Z,38.22
2024-01-11T19:50:54.358Z,37.28
2024-01-11T19:53:22.998Z,40.00
2024-01-11T19:55:51.258Z,42.35
2024-01-11T19:58:20.937Z,38.90
2024-01-11T20:00:49.471Z,43.28
2024-01-11T20:03:17.726Z,36.78
2024-01-11T20:05:45.999Z,42.45
2024-01-11T20:08:14.631Z,43.50
2024-01-11T20:10:43.793Z,38.43
2024-01-11T20:13:11.997Z,35.40
2024-01-11T20:15:41.594Z,34.63
2024-01-11T20:18:10.323Z,33.83
2024-01-11T20:20:38.805Z,38.50
2024-01-11T20:23:07.452Z,38.53
2024-01-11T20:25:35.853Z,38.47
2024-01-11T20:28:04.780Z,36.38
2024-01-11T20:30:35.528Z,35.03
2024-01-11T20:33:05.895Z,42.92
2024-01-11T20:35:34.805Z,44.40
2024-01-11T20:38:03.986Z,35.95
2024-01-11T20:40:32.165Z,32.67
2024-01-11T20:43:01.162Z,41.20
2024-01-11T20:45:29.259Z,38.47
2024-01-11T20:47:57.891Z,35.67
2024-01-11T20:50:27.747Z,39.53
2024-01-11T20:52:56.357Z,37.85
2024-01-11T20:55:24.763Z,38.78
2024-01-11T20:57:53.620Z,36.30
2024-01-11T21:00:22.903Z,37.83
2024-01-11T21:02:52.264Z,38.30
2024-01-11T21:05:21.783Z,37.03
2024-01-11T21:07:54.567Z,36.88
2024-01-11T21:10:25.439Z,40.60
2024-01-11T21:12:53.892Z,38.97
2024-01-11T21:15:22.180Z,35.45
2024-01-11T21:17:50.961Z,43.78
2024-01-11T21:20:19.845Z,38.47
2024-01-11T21:22:48.698Z,38.63
2024-01-11T21:25:18.925Z,36.83
2024-01-11T21:27:47.595Z,38.30
2024-01-11T21:30:17.069Z,30.75
2024-01-11T21:32:45.835Z,37.35
2024-01-11T21:35:19.218Z,35.85
2024-01-11T21:37:50.722Z,36.03
2024-01-11T21:40:20.793Z,39.10
2024-01-11T21:42:49.154Z,37.78
2024-01-11T21:45:18.032Z,41.17
2024-01-11T21:47:48.382Z,34.00
2024-01-11T21:50:18.184Z,37.67
2024-01-11T21:52:47.425Z,38.22
2024-01-11T21:55:16.167Z,37.58
2024-01-11T21:57:46.183Z,36.15
2024-01-11T22:00:15.666Z,30.88
2024-01-11T22:02:44.081Z,32.53
2024-01-11T22:05:12.348Z,35.42
2024-01-11T22:07:40.524Z,38.53
2024-01-11T22:10:10.589Z,35.65
2024-01-11T22:12:38.974Z,35.70
2024-01-11T22:15:10.958Z,36.07
2024-01-11T22:17:38.984Z,32.38
2024-01-11T22:20:08.775Z,32.13
2024-01-11T22:22:37.410Z,36.28
2024-01-11T22:25:06.103Z,33.85
2024-01-11T22:27:34.654Z,32.27
2024-01-11T22:30:05.211Z,34.35
2024-01-11T22:32:36.527Z,33.20
2024-01-11T22:35:05.542Z,32.42
2024-01-11T22:37:33.832Z,34.53
2024-01-11T22:40:02.120Z,36.43
2024-01-11T22:42:31.079Z,32.50
2024-01-11T22:44:59.881Z,31.17
2024-01-11T22:47:28.546Z,34.38
2024-01-11T22:49:58.142Z,33.55
2024-01-11T22:52:26.770Z,30.27
2024-01-11T22:54:55.238Z,32.40
2024-01-11T22:57:23.380Z,28.92
2024-01-11T22:59:51.665Z,29.23
2024-01-11T23:02:20.316Z,27.17
2024-01-11T23:04:48.845Z,32.67
2024-01-11T23:07:18.581Z,29.05
2024-01-11T23:09:47.546Z,30.55
2024-01-11T23:12:15.957Z,32.33
2024-01-11T23:14:44.109Z,36.65
2024-01-11T23:17:12.328Z,32.07
2024-01-11T23:19:40.696Z,33.30
2024-01-11T23:22:08.941Z,30.52
2024-01-11T23:24:38.404Z,29.73
2024-01-11T23:27:07.107Z,28.60
2024-01-11T23:29:35.693Z,27.47
2024-01-11T23:32:04.065Z,27.45
2024-01-11T23:34:32.605Z,32.78
2024-01-11T23:37:00.957Z,27.00
2024-01-11T23:39:29.029Z,27.27
2024-01-11T23:41:58.648Z,28.00
2024-01-11T23:44:27.004Z,29.42
2024-01-11T23:46:55.276Z,25.30
2024-01-11T23:49:23.637Z,28.52
2024-01-11T23:51:51.798Z,27.63
2024-01-11T23:54:20.168Z,29.07
2024-01-11T23:56:48.394Z,26.63
2024-01-11T23:59:20.265Z,28.70
